sensor_id;sensor_type;location;lat;lon;timestamp;pressure;altitude;pressure_sealevel;temperature;humidity
77118;BME280;66072;50.238;19.228;2023-03-04T00:00:19;98550.11;;;-0.87;87.53
77118;BME280;66072;50.238;19.228;2023-03-04T00:03:07;98550.27;;;-0.87;87.65
77118;BME280;66072;50.238;19.228;2023-03-04T00:05:36;98546.76;;;-0.88;87.76
77118;BME280;66072;50.238;19.228;2023-03-04T00:08:03;98543.23;;;-0.86;87.84
77118;BME280;66072;50.238;19.228;2023-03-04T00:10:31;98538.54;;;-0.86;87.65
77118;BME280;66072;50.238;19.228;2023-03-04T00:12:59;98537.71;;;-0.86;87.73
77118;BME280;66072;50.238;19.228;2023-03-04T00:15:26;98540.73;;;-0.87;87.78
77118;BME280;66072;50.238;19.228;2023-03-04T00:17:54;98535.02;;;-0.87;87.88
77118;BME280;66072;50.238;19.228;2023-03-04T00:20:22;98532.00;;;-0.85;87.84
77118;BME280;66072;50.238;19.228;2023-03-04T00:22:49;98531.16;;;-0.85;88.04
77118;BME280;66072;50.238;19.228;2023-03-04T00:25:17;98524.10;;;-0.84;88.01
77118;BME280;66072;50.238;19.228;2023-03-04T00:27:45;98524.27;;;-0.84;87.94
77118;BME280;66072;50.238;19.228;2023-03-04T00:30:12;98515.37;;;-0.84;87.82
77118;BME280;66072;50.238;19.228;2023-03-04T00:32:40;98514.02;;;-0.83;87.94
77118;BME280;66072;50.238;19.228;2023-03-04T00:35:08;98513.02;;;-0.83;88.01
77118;BME280;66072;50.238;19.228;2023-03-04T00:37:35;98503.28;;;-0.83;88.00
77118;BME280;66072;50.238;19.228;2023-03-04T00:40:03;98504.96;;;-0.83;88.04
77118;BME280;66072;50.238;19.228;2023-03-04T00:42:31;98504.13;;;-0.84;88.02
77118;BME280;66072;50.238;19.228;2023-03-04T00:44:59;98503.61;;;-0.83;88.18
77118;BME280;66072;50.238;19.228;2023-03-04T00:47:26;98498.08;;;-0.84;88.11
77118;BME280;66072;50.238;19.228;2023-03-04T00:49:54;98497.08;;;-0.85;88.18
77118;BME280;66072;50.238;19.228;2023-03-04T00:52:22;98491.87;;;-0.86;88.25
77118;BME280;66072;50.238;19.228;2023-03-04T00:54:49;98485.48;;;-0.87;88.35
77118;BME280;66072;50.238;19.228;2023-03-04T00:57:17;98481.62;;;-0.88;88.36
77118;BME280;66072;50.238;19.228;2023-03-04T00:59:44;98473.56;;;-0.88;88.44
77118;BME280;66072;50.238;19.228;2023-03-04T01:02:12;98462.83;;;-0.86;88.36
77118;BME280;66072;50.238;19.228;2023-03-04T01:04:40;98452.74;;;-0.87;88.43
77118;BME280;66072;50.238;19.228;2023-03-04T01:07:08;98452.08;;;-0.87;88.49
77118;BME280;66072;50.238;19.228;2023-03-04T01:09:35;98447.72;;;-0.86;88.21
77118;BME280;66072;50.238;19.228;2023-03-04T01:12:03;98443.18;;;-0.86;88.28
77118;BME280;66072;50.238;19.228;2023-03-04T01:14:31;98441.00;;;-0.84;88.06
77118;BME280;66072;50.238;19.228;2023-03-04T01:16:58;98435.46;;;-0.85;88.31
77118;BME280;66072;50.238;19.228;2023-03-04T01:19:26;98434.10;;;-0.83;88.04
77118;BME280;66072;50.238;19.228;2023-03-04T01:21:54;98431.92;;;-0.82;88.02
77118;BME280;66072;50.238;19.228;2023-03-04T01:24:21;98428.55;;;-0.81;88.12
77118;BME280;66072;50.238;19.228;2023-03-04T01:26:49;98421.67;;;-0.81;88.23
77118;BME280;66072;50.238;19.228;2023-03-04T01:29:16;98417.15;;;-0.79;88.21
77118;BME280;66072;50.238;19.228;2023-03-04T01:31:44;98409.77;;;-0.79;88.26
77118;BME280;66072;50.238;19.228;2023-03-04T01:34:11;98414.13;;;-0.78;88.17
77118;BME280;66072;50.238;19.228;2023-03-04T01:36:39;98414.96;;;-0.77;87.83
77118;BME280;66072;50.238;19.228;2023-03-04T01:39:06;98409.76;;;-0.77;87.79
77118;BME280;66072;50.238;19.228;2023-03-04T01:41:34;98408.23;;;-0.76;87.88
77118;BME280;66072;50.238;19.228;2023-03-04T01:44:02;98405.38;;;-0.74;87.62
77118;BME280;66072;50.238;19.228;2023-03-04T01:46:30;98402.20;;;-0.77;87.64
77118;BME280;66072;50.238;19.228;2023-03-04T01:48:58;98397.14;;;-0.76;87.52
77118;BME280;66072;50.238;19.228;2023-03-04T01:51:26;98393.96;;;-0.76;87.42
77118;BME280;66072;50.238;19.228;2023-03-04T01:53:54;98391.29;;;-0.77;87.31
77118;BME280;66072;50.238;19.228;2023-03-04T01:56:36;98391.45;;;-0.76;87.30
77118;BME280;66072;50.238;19.228;2023-03-04T01:59:21;98395.81;;;-0.77;87.43
77118;BME280;66072;50.238;19.228;2023-03-04T02:01:54;98393.95;;;-0.76;87.24
77118;BME280;66072;50.238;19.228;2023-03-04T02:04:30;98396.15;;;-0.77;87.34
77118;BME280;66072;50.238;19.228;2023-03-04T02:07:00;98389.95;;;-0.77;87.26
77118;BME280;66072;50.238;19.228;2023-03-04T02:09:29;98387.92;;;-0.79;87.13
77118;BME280;66072;50.238;19.228;2023-03-04T02:11:58;98383.57;;;-0.79;87.21
77118;BME280;66072;50.238;19.228;2023-03-04T02:14:26;98375.01;;;-0.83;87.25
77118;BME280;66072;50.238;19.228;2023-03-04T02:16:53;98377.52;;;-0.84;87.14
77118;BME280;66072;50.238;19.228;2023-03-04T02:19:51;98370.98;;;-0.86;87.42
77118;BME280;66072;50.238;19.228;2023-03-04T02:22:22;98369.47;;;-0.86;87.15
77118;BME280;66072;50.238;19.228;2023-03-04T02:24:57;98362.27;;;-0.88;87.25
77118;BME280;66072;50.238;19.228;2023-03-04T02:27:26;98359.40;;;-0.87;86.89
77118;BME280;66072;50.238;19.228;2023-03-04T02:29:54;98357.39;;;-0.88;87.11
77118;BME280;66072;50.238;19.228;2023-03-04T02:32:22;98353.87;;;-0.88;87.07
77118;BME280;66072;50.238;19.228;2023-03-04T02:34:49;98351.36;;;-0.88;86.92
77118;BME280;66072;50.238;19.228;2023-03-04T02:37:18;98348.00;;;-0.89;87.09
77118;BME280;66072;50.238;19.228;2023-03-04T02:39:47;98339.95;;;-0.91;86.94
77118;BME280;66072;50.238;19.228;2023-03-04T02:42:15;98337.42;;;-0.90;86.91
77118;BME280;66072;50.238;19.228;2023-03-04T02:44:44;98334.58;;;-0.90;86.77
77118;BME280;66072;50.238;19.228;2023-03-04T02:47:14;98335.42;;;-0.91;86.80
77118;BME280;66072;50.238;19.228;2023-03-04T02:49:42;98334.58;;;-0.91;86.80
77118;BME280;66072;50.238;19.228;2023-03-04T02:52:17;98330.39;;;-0.92;86.97
77118;BME280;66072;50.238;19.228;2023-03-04T02:54:45;98330.04;;;-0.93;86.95
77118;BME280;66072;50.238;19.228;2023-03-04T02:57:14;98328.86;;;-0.93;87.22
77118;BME280;66072;50.238;19.228;2023-03-04T02:59:42;98323.66;;;-0.94;87.51
77118;BME280;66072;50.238;19.228;2023-03-04T03:02:09;98322.16;;;-0.95;87.32
77118;BME280;66072;50.238;19.228;2023-03-04T03:04:38;98318.47;;;-0.96;87.52
77118;BME280;66072;50.238;19.228;2023-03-04T03:07:06;98316.45;;;-0.95;87.56
77118;BME280;66072;50.238;19.228;2023-03-04T03:09:34;98315.96;;;-0.96;87.42
77118;BME280;66072;50.238;19.228;2023-03-04T03:12:02;98314.12;;;-0.96;87.51
77118;BME280;66072;50.238;19.228;2023-03-04T03:14:29;98310.09;;;-0.97;87.15
77118;BME280;66072;50.238;19.228;2023-03-04T03:16:57;98318.31;;;-0.97;87.11
77118;BME280;66072;50.238;19.228;2023-03-04T03:19:24;98316.14;;;-0.98;87.08
77118;BME280;66072;50.238;19.228;2023-03-04T03:21:52;98318.98;;;-0.98;87.28
77118;BME280;66072;50.238;19.228;2023-03-04T03:24:20;98317.48;;;-0.99;87.30
77118;BME280;66072;50.238;19.228;2023-03-04T03:26:47;98315.80;;;-0.99;87.37
77118;BME280;66072;50.238;19.228;2023-03-04T03:29:15;98314.11;;;-0.99;87.51
77118;BME280;66072;50.238;19.228;2023-03-04T03:31:42;98312.10;;;-1.00;87.51
77118;BME280;66072;50.238;19.228;2023-03-04T03:34:10;98315.13;;;-1.00;87.67
77118;BME280;66072;50.238;19.228;2023-03-04T03:36:37;98314.80;;;-1.02;87.68
77118;BME280;66072;50.238;19.228;2023-03-04T03:39:05;98319.66;;;-1.01;87.65
77118;BME280;66072;50.238;19.228;2023-03-04T03:41:33;98316.80;;;-1.00;87.67
77118;BME280;66072;50.238;19.228;2023-03-04T03:44:00;98316.13;;;-1.00;87.60
77118;BME280;66072;50.238;19.228;2023-03-04T03:46:28;98312.44;;;-1.01;87.50
77118;BME280;66072;50.238;19.228;2023-03-04T03:48:55;98314.29;;;-1.01;87.71
77118;BME280;66072;50.238;19.228;2023-03-04T03:51:23;98311.61;;;-1.02;87.75
77118;BME280;66072;50.238;19.228;2023-03-04T03:53:51;98309.42;;;-1.01;87.79
77118;BME280;66072;50.238;19.228;2023-03-04T03:56:18;98306.73;;;-1.04;87.65
77118;BME280;66072;50.238;19.228;2023-03-04T03:58:46;98300.71;;;-1.07;87.83
77118;BME280;66072;50.238;19.228;2023-03-04T04:01:13;98307.27;;;-1.10;87.78
77118;BME280;66072;50.238;19.228;2023-03-04T04:03:41;98307.77;;;-1.11;88.12
77118;BME280;66072;50.238;19.228;2023-03-04T04:06:09;98308.77;;;-1.13;88.22
77118;BME280;66072;50.238;19.228;2023-03-04T04:08:36;98309.96;;;-1.14;88.35
77118;BME280;66072;50.238;19.228;2023-03-04T04:11:04;98311.64;;;-1.14;88.29
77118;BME280;66072;50.238;19.228;2023-03-04T04:13:32;98312.15;;;-1.15;88.36
77118;BME280;66072;50.238;19.228;2023-03-04T04:15:59;98306.45;;;-1.17;88.60
77118;BME280;66072;50.238;19.228;2023-03-04T04:18:27;98306.29;;;-1.20;88.65
77118;BME280;66072;50.238;19.228;2023-03-04T04:20:55;98301.92;;;-1.22;88.72
77118;BME280;66072;50.238;19.228;2023-03-04T04:23:22;98305.95;;;-1.23;88.91
77118;BME280;66072;50.238;19.228;2023-03-04T04:25:50;98299.92;;;-1.25;88.92
77118;BME280;66072;50.238;19.228;2023-03-04T04:28:17;98298.25;;;-1.28;89.20
77118;BME280;66072;50.238;19.228;2023-03-04T04:30:45;98300.92;;;-1.30;89.43
77118;BME280;66072;50.238;19.228;2023-03-04T04:33:13;98298.94;;;-1.33;89.63
77118;BME280;66072;50.238;19.228;2023-03-04T04:35:40;98299.92;;;-1.31;89.38
77118;BME280;66072;50.238;19.228;2023-03-04T04:38:09;98294.41;;;-1.33;89.65
77118;BME280;66072;50.238;19.228;2023-03-04T04:40:37;98296.08;;;-1.33;89.64
77118;BME280;66072;50.238;19.228;2023-03-04T04:43:04;98292.06;;;-1.34;89.80
77118;BME280;66072;50.238;19.228;2023-03-04T04:45:33;98293.90;;;-1.34;89.68
77118;BME280;66072;50.238;19.228;2023-03-04T04:48:00;98294.23;;;-1.33;89.68
77118;BME280;66072;50.238;19.228;2023-03-04T04:50:28;98295.25;;;-1.34;89.64
77118;BME280;66072;50.238;19.228;2023-03-04T04:52:59;98296.25;;;-1.33;89.57
77118;BME280;66072;50.238;19.228;2023-03-04T04:55:27;98297.42;;;-1.32;89.52
77118;BME280;66072;50.238;19.228;2023-03-04T04:57:54;98298.59;;;-1.32;89.50
77118;BME280;66072;50.238;19.228;2023-03-04T05:00:22;98297.91;;;-1.29;89.34
77118;BME280;66072;50.238;19.228;2023-03-04T05:02:49;98294.39;;;-1.30;89.53
77118;BME280;66072;50.238;19.228;2023-03-04T05:05:17;98293.55;;;-1.29;89.28
77118;BME280;66072;50.238;19.228;2023-03-04T05:07:45;98288.51;;;-1.29;89.40
77118;BME280;66072;50.238;19.228;2023-03-04T05:10:12;98287.34;;;-1.30;89.31
77118;BME280;66072;50.238;19.228;2023-03-04T05:12:40;98285.66;;;-1.30;88.92
77118;BME280;66072;50.238;19.228;2023-03-04T05:15:08;98284.83;;;-1.30;88.84
77118;BME280;66072;50.238;19.228;2023-03-04T05:17:35;98286.00;;;-1.30;88.79
77118;BME280;66072;50.238;19.228;2023-03-04T05:20:03;98286.17;;;-1.28;88.61
77118;BME280;66072;50.238;19.228;2023-03-04T05:22:31;98284.84;;;-1.28;88.49
77118;BME280;66072;50.238;19.228;2023-03-04T05:24:58;98285.66;;;-1.26;88.49
77118;BME280;66072;50.238;19.228;2023-03-04T05:27:26;98285.33;;;-1.27;88.05
77118;BME280;66072;50.238;19.228;2023-03-04T05:29:54;98281.63;;;-1.26;87.80
77118;BME280;66072;50.238;19.228;2023-03-04T05:32:21;98283.14;;;-1.25;87.66
77118;BME280;66072;50.238;19.228;2023-03-04T05:34:49;98273.24;;;-1.25;87.32
77118;BME280;66072;50.238;19.228;2023-03-04T05:37:16;98276.77;;;-1.25;86.88
77118;BME280;66072;50.238;19.228;2023-03-04T05:39:44;98268.54;;;-1.25;86.30
77118;BME280;66072;50.238;19.228;2023-03-04T05:42:11;98276.42;;;-1.22;86.36
77118;BME280;66072;50.238;19.228;2023-03-04T05:44:39;98270.05;;;-1.22;86.45
77118;BME280;66072;50.238;19.228;2023-03-04T05:47:06;98269.54;;;-1.20;86.14
77118;BME280;66072;50.238;19.228;2023-03-04T05:49:34;98268.37;;;-1.20;86.08
77118;BME280;66072;50.238;19.228;2023-03-04T05:52:02;98272.90;;;-1.21;86.06
77118;BME280;66072;50.238;19.228;2023-03-04T05:54:29;98265.52;;;-1.21;86.03
77118;BME280;66072;50.238;19.228;2023-03-04T05:56:57;98272.23;;;-1.20;85.91
77118;BME280;66072;50.238;19.228;2023-03-04T05:59:24;98268.53;;;-1.20;85.88
77118;BME280;66072;50.238;19.228;2023-03-04T06:01:52;98274.06;;;-1.19;85.99
77118;BME280;66072;50.238;19.228;2023-03-04T06:04:20;98273.39;;;-1.16;85.92
77118;BME280;66072;50.238;19.228;2023-03-04T06:06:47;98270.02;;;-1.14;85.72
77118;BME280;66072;50.238;19.228;2023-03-04T06:09:15;98269.19;;;-1.15;85.68
77118;BME280;66072;50.238;19.228;2023-03-04T06:11:42;98266.67;;;-1.15;85.50
77118;BME280;66072;50.238;19.228;2023-03-04T06:14:10;98259.98;;;-1.16;85.35
77118;BME280;66072;50.238;19.228;2023-03-04T06:16:37;98261.30;;;-1.15;85.43
77118;BME280;66072;50.238;19.228;2023-03-04T06:19:05;98264.16;;;-1.16;85.47
77118;BME280;66072;50.238;19.228;2023-03-04T06:21:33;98255.77;;;-1.16;84.88
77118;BME280;66072;50.238;19.228;2023-03-04T06:24:00;98258.61;;;-1.15;84.83
77118;BME280;66072;50.238;19.228;2023-03-04T06:26:28;98252.73;;;-1.14;85.15
77118;BME280;66072;50.238;19.228;2023-03-04T06:28:55;98254.25;;;-1.14;85.23
77118;BME280;66072;50.238;19.228;2023-03-04T06:31:23;98254.23;;;-1.14;84.97
77118;BME280;66072;50.238;19.228;2023-03-04T06:33:51;98255.42;;;-1.13;84.96
77118;BME280;66072;50.238;19.228;2023-03-04T06:36:18;98260.62;;;-1.09;84.74
77118;BME280;66072;50.238;19.228;2023-03-04T06:38:46;98256.08;;;-1.09;84.44
77118;BME280;66072;50.238;19.228;2023-03-04T06:41:14;98266.13;;;-1.04;84.50
77118;BME280;66072;50.238;19.228;2023-03-04T06:43:41;98270.33;;;-1.04;84.36
77118;BME280;66072;50.238;19.228;2023-03-04T06:46:09;98276.38;;;-1.04;84.51
77118;BME280;66072;50.238;19.228;2023-03-04T06:48:37;98277.04;;;-1.03;84.46
77118;BME280;66072;50.238;19.228;2023-03-04T06:51:09;98279.56;;;-1.03;84.25
77118;BME280;66072;50.238;19.228;2023-03-04T06:53:38;98284.25;;;-1.01;84.23
77118;BME280;66072;50.238;19.228;2023-03-04T06:56:06;98286.92;;;-1.00;84.54
77118;BME280;66072;50.238;19.228;2023-03-04T06:58:35;98291.63;;;-1.00;84.42
77118;BME280;66072;50.238;19.228;2023-03-04T07:01:29;98293.30;;;-0.99;84.35
77118;BME280;66072;50.238;19.228;2023-03-04T07:03:57;98298.67;;;-1.00;84.05
77118;BME280;66072;50.238;19.228;2023-03-04T07:06:26;98296.98;;;-0.99;84.01
77118;BME280;66072;50.238;19.228;2023-03-04T07:08:54;98295.48;;;-1.00;83.78
77118;BME280;66072;50.238;19.228;2023-03-04T07:11:22;98298.17;;;-0.98;83.83
77118;BME280;66072;50.238;19.228;2023-03-04T07:13:50;98301.02;;;-0.97;83.85
77118;BME280;66072;50.238;19.228;2023-03-04T07:16:21;98298.33;;;-0.94;83.94
77118;BME280;66072;50.238;19.228;2023-03-04T07:18:49;98299.50;;;-0.93;83.94
77118;BME280;66072;50.238;19.228;2023-03-04T07:21:17;98298.81;;;-0.92;83.82
77118;BME280;66072;50.238;19.228;2023-03-04T07:23:46;98302.66;;;-0.87;83.83
77118;BME280;66072;50.238;19.228;2023-03-04T07:26:13;98305.67;;;-0.87;83.08
77118;BME280;66072;50.238;19.228;2023-03-04T07:28:41;98304.33;;;-0.87;83.15
77118;BME280;66072;50.238;19.228;2023-03-04T07:31:20;98300.82;;;-0.88;82.86
77118;BME280;66072;50.238;19.228;2023-03-04T07:33:50;98302.66;;;-0.87;83.14
77118;BME280;66072;50.238;19.228;2023-03-04T07:36:18;98308.36;;;-0.87;83.07
77118;BME280;66072;50.238;19.228;2023-03-04T07:38:47;98307.02;;;-0.85;82.62
77118;BME280;66072;50.238;19.228;2023-03-04T07:41:16;98309.37;;;-0.83;82.35
77118;BME280;66072;50.238;19.228;2023-03-04T07:43:44;98306.67;;;-0.79;82.39
77118;BME280;66072;50.238;19.228;2023-03-04T07:46:12;98302.29;;;-0.75;82.48
77118;BME280;66072;50.238;19.228;2023-03-04T07:48:41;98301.95;;;-0.73;81.94
77118;BME280;66072;50.238;19.228;2023-03-04T07:51:12;98303.45;;;-0.73;81.61
77118;BME280;66072;50.238;19.228;2023-03-04T07:53:41;98303.10;;;-0.70;81.72
77118;BME280;66072;50.238;19.228;2023-03-04T07:56:15;98302.77;;;-0.71;81.50
77118;BME280;66072;50.238;19.228;2023-03-04T07:58:44;98304.94;;;-0.69;81.55
77118;BME280;66072;50.238;19.228;2023-03-04T08:01:35;98304.27;;;-0.67;81.50
77118;BME280;66072;50.238;19.228;2023-03-04T08:04:05;98307.27;;;-0.64;81.46
77118;BME280;66072;50.238;19.228;2023-03-04T08:06:34;98308.13;;;-0.64;80.99
77118;BME280;66072;50.238;19.228;2023-03-04T08:09:04;98307.27;;;-0.62;81.00
77118;BME280;66072;50.238;19.228;2023-03-04T08:11:34;98308.27;;;-0.59;80.72
77118;BME280;66072;50.238;19.228;2023-03-04T08:14:02;98312.30;;;-0.61;79.86
77118;BME280;66072;50.238;19.228;2023-03-04T08:16:30;98316.48;;;-0.56;79.40
77118;BME280;66072;50.238;19.228;2023-03-04T08:19:02;98318.81;;;-0.51;78.39
77118;BME280;66072;50.238;19.228;2023-03-04T08:21:31;98316.10;;;-0.50;78.40
77118;BME280;66072;50.238;19.228;2023-03-04T08:24:00;98317.77;;;-0.45;78.86
77118;BME280;66072;50.238;19.228;2023-03-04T08:26:30;98327.85;;;-0.45;78.79
77118;BME280;66072;50.238;19.228;2023-03-04T08:29:00;98325.31;;;-0.44;78.51
77118;BME280;66072;50.238;19.228;2023-03-04T08:31:29;98322.15;;;-0.47;78.53
77118;BME280;66072;50.238;19.228;2023-03-04T08:33:57;98327.20;;;-0.47;77.89
77118;BME280;66072;50.238;19.228;2023-03-04T08:36:24;98310.73;;;-0.49;77.86
77118;BME280;66072;50.238;19.228;2023-03-04T08:38:52;98314.25;;;-0.47;77.80
77118;BME280;66072;50.238;19.228;2023-03-04T08:41:19;98316.43;;;-0.46;77.95
77118;BME280;66072;50.238;19.228;2023-03-04T08:43:47;98313.39;;;-0.43;77.94
77118;BME280;66072;50.238;19.228;2023-03-04T08:46:15;98319.09;;;-0.42;78.05
77118;BME280;66072;50.238;19.228;2023-03-04T08:48:42;98314.90;;;-0.42;77.72
77118;BME280;66072;50.238;19.228;2023-03-04T08:51:12;98317.91;;;-0.39;77.58
77118;BME280;66072;50.238;19.228;2023-03-04T08:53:40;98309.48;;;-0.37;77.47
77118;BME280;66072;50.238;19.228;2023-03-04T08:56:08;98314.02;;;-0.33;77.54
77118;BME280;66072;50.238;19.228;2023-03-04T08:58:36;98311.97;;;-0.28;77.64
77118;BME280;66072;50.238;19.228;2023-03-04T09:01:07;98310.60;;;-0.24;77.46
77118;BME280;66072;50.238;19.228;2023-03-04T09:03:35;98312.77;;;-0.22;77.18
77118;BME280;66072;50.238;19.228;2023-03-04T09:06:04;98308.22;;;-0.18;77.28
77118;BME280;66072;50.238;19.228;2023-03-04T09:08:32;98307.86;;;-0.16;76.85
77118;BME280;66072;50.238;19.228;2023-03-04T09:11:00;98305.15;;;-0.11;76.98
77118;BME280;66072;50.238;19.228;2023-03-04T09:13:29;98310.20;;;-0.12;77.00
77118;BME280;66072;50.238;19.228;2023-03-04T09:15:57;98308.15;;;-0.09;76.85
77118;BME280;66072;50.238;19.228;2023-03-04T09:18:25;98308.14;;;-0.07;76.86
77118;BME280;66072;50.238;19.228;2023-03-04T09:20:53;98302.92;;;-0.06;76.82
77118;BME280;66072;50.238;19.228;2023-03-04T09:23:21;98306.63;;;-0.08;76.97
77118;BME280;66072;50.238;19.228;2023-03-04T09:25:49;98303.97;;;-0.11;76.82
77118;BME280;66072;50.238;19.228;2023-03-04T09:28:17;98304.95;;;-0.08;77.15
77118;BME280;66072;50.238;19.228;2023-03-04T09:30:45;98303.61;;;-0.08;77.12
77118;BME280;66072;50.238;19.228;2023-03-04T09:33:13;98308.17;;;-0.11;77.20
77118;BME280;66072;50.238;19.228;2023-03-04T09:35:41;98301.79;;;-0.12;77.36
77118;BME280;66072;50.238;19.228;2023-03-04T09:38:09;98304.45;;;-0.08;77.58
77118;BME280;66072;50.238;19.228;2023-03-04T09:40:40;98301.45;;;-0.11;77.45
77118;BME280;66072;50.238;19.228;2023-03-04T09:43:38;98298.94;;;-0.13;77.62
77118;BME280;66072;50.238;19.228;2023-03-04T09:46:31;98298.42;;;-0.12;77.51
77118;BME280;66072;50.238;19.228;2023-03-04T09:48:59;98299.60;;;-0.11;77.79
77118;BME280;66072;50.238;19.228;2023-03-04T09:51:40;98296.75;;;-0.12;77.91
77118;BME280;66072;50.238;19.228;2023-03-04T09:57:50;98302.96;;;-0.13;78.02
77118;BME280;66072;50.238;19.228;2023-03-04T10:05:37;98299.27;;;-0.10;77.86
77118;BME280;66072;50.238;19.228;2023-03-04T10:10:59;98294.51;;;-0.05;78.02
77118;BME280;66072;50.238;19.228;2023-03-04T10:16:00;98286.41;;;-0.01;77.95
77118;BME280;66072;50.238;19.228;2023-03-04T10:18:36;98282.67;;;0.04;78.08
77118;BME280;66072;50.238;19.228;2023-03-04T10:23:40;98281.52;;;0.03;77.95
77118;BME280;66072;50.238;19.228;2023-03-04T10:26:16;98273.45;;;0.02;77.98
77118;BME280;66072;50.238;19.228;2023-03-04T10:28:44;98273.42;;;0.06;78.19
77118;BME280;66072;50.238;19.228;2023-03-04T10:31:33;98270.89;;;0.06;78.42
77118;BME280;66072;50.238;19.228;2023-03-04T10:34:03;98267.50;;;0.10;78.51
77118;BME280;66072;50.238;19.228;2023-03-04T10:36:37;98266.64;;;0.13;78.58
77118;BME280;66072;50.238;19.228;2023-03-04T10:39:12;98263.28;;;0.11;78.43
77118;BME280;66072;50.238;19.228;2023-03-04T10:41:45;98264.63;;;0.12;78.44
77118;BME280;66072;50.238;19.228;2023-03-04T10:44:20;98259.05;;;0.14;78.74
77118;BME280;66072;50.238;19.228;2023-03-04T10:46:48;98255.49;;;0.17;78.68
77118;BME280;66072;50.238;19.228;2023-03-04T10:49:18;98246.91;;;0.18;78.75
77118;BME280;66072;50.238;19.228;2023-03-04T10:52:34;98246.59;;;0.17;78.66
77118;BME280;66072;50.238;19.228;2023-03-04T10:55:03;98249.95;;;0.17;79.05
77118;BME280;66072;50.238;19.228;2023-03-04T10:57:34;98238.71;;;0.16;79.35
77118;BME280;66072;50.238;19.228;2023-03-04T11:00:33;98239.35;;;0.19;79.26
77118;BME280;66072;50.238;19.228;2023-03-04T11:05:47;98227.52;;;0.25;79.31
77118;BME280;66072;50.238;19.228;2023-03-04T11:08:21;98222.95;;;0.27;79.31
77118;BME280;66072;50.238;19.228;2023-03-04T11:10:49;98224.77;;;0.31;79.33
77118;BME280;66072;50.238;19.228;2023-03-04T11:13:20;98224.41;;;0.34;79.65
77118;BME280;66072;50.238;19.228;2023-03-04T11:15:55;98226.27;;;0.33;79.35
77118;BME280;66072;50.238;19.228;2023-03-04T11:18:54;98223.63;;;0.27;79.67
77118;BME280;66072;50.238;19.228;2023-03-04T11:21:27;98225.00;;;0.25;80.28
77118;BME280;66072;50.238;19.228;2023-03-04T11:24:00;98232.05;;;0.27;80.34
77118;BME280;66072;50.238;19.228;2023-03-04T11:26:42;98227.33;;;0.28;80.51
77118;BME280;66072;50.238;19.228;2023-03-04T11:30:01;98226.30;;;0.30;80.75
77118;BME280;66072;50.238;19.228;2023-03-04T11:32:36;98224.79;;;0.28;81.25
77118;BME280;66072;50.238;19.228;2023-03-04T11:35:33;98220.08;;;0.30;81.10
77118;BME280;66072;50.238;19.228;2023-03-04T11:38:07;98213.85;;;0.29;81.52
77118;BME280;66072;50.238;19.228;2023-03-04T11:40:42;98208.48;;;0.28;81.56
77118;BME280;66072;50.238;19.228;2023-03-04T11:43:22;98197.95;;;0.21;81.55
77118;BME280;66072;50.238;19.228;2023-03-04T11:54:49;98198.63;;;0.21;81.92
77118;BME280;66072;50.238;19.228;2023-03-04T11:57:35;98195.60;;;0.21;81.87
77118;BME280;66072;50.238;19.228;2023-03-04T12:08:27;98191.48;;;0.29;81.39
77118;BME280;66072;50.238;19.228;2023-03-04T12:11:05;98184.02;;;0.36;81.21
77118;BME280;66072;50.238;19.228;2023-03-04T12:16:50;98180.70;;;0.46;80.89
77118;BME280;66072;50.238;19.228;2023-03-04T12:22:05;98171.31;;;0.59;80.59
77118;BME280;66072;50.238;19.228;2023-03-04T12:24:57;98176.66;;;0.62;80.14
77118;BME280;66072;50.238;19.228;2023-03-04T12:43:57;98160.85;;;1.03;78.44
77118;BME280;66072;50.238;19.228;2023-03-04T12:54:16;98153.09;;;1.15;77.94
77118;BME280;66072;50.238;19.228;2023-03-04T12:56:53;98147.69;;;1.17;78.10
77118;BME280;66072;50.238;19.228;2023-03-04T12:59:25;98144.81;;;1.19;77.81
77118;BME280;66072;50.238;19.228;2023-03-04T13:09:56;98138.11;;;1.15;78.06
77118;BME280;66072;50.238;19.228;2023-03-04T13:12:25;98137.85;;;1.09;77.99
77118;BME280;66072;50.238;19.228;2023-03-04T13:17:41;98134.04;;;1.06;78.11
77118;BME280;66072;50.238;19.228;2023-03-04T13:22:52;98129.52;;;1.03;78.33
77118;BME280;66072;50.238;19.228;2023-03-04T13:43:53;98121.69;;;1.09;78.14
77118;BME280;66072;50.238;19.228;2023-03-04T13:57:09;98117.83;;;1.08;78.46
77118;BME280;66072;50.238;19.228;2023-03-04T14:02:20;98114.42;;;1.12;78.52
77118;BME280;66072;50.238;19.228;2023-03-04T14:04:59;98105.84;;;1.12;78.20
77118;BME280;66072;50.238;19.228;2023-03-04T14:07:30;98105.29;;;1.14;78.36
77118;BME280;66072;50.238;19.228;2023-03-04T14:12:36;98102.11;;;1.13;78.49
77118;BME280;66072;50.238;19.228;2023-03-04T14:17:46;98103.95;;;1.13;78.68
77118;BME280;66072;50.238;19.228;2023-03-04T14:20:33;98097.73;;;1.12;78.64
77118;BME280;66072;50.238;19.228;2023-03-04T14:23:31;98095.23;;;1.12;79.03
77118;BME280;66072;50.238;19.228;2023-03-04T14:26:11;98097.26;;;1.11;79.21
77118;BME280;66072;50.238;19.228;2023-03-04T14:28:47;98095.41;;;1.11;79.56
77118;BME280;66072;50.238;19.228;2023-03-04T14:31:20;98091.34;;;1.13;79.40
77118;BME280;66072;50.238;19.228;2023-03-04T14:33:50;98095.15;;;1.15;79.65
77118;BME280;66072;50.238;19.228;2023-03-04T14:36:20;98093.28;;;1.18;79.50
77118;BME280;66072;50.238;19.228;2023-03-04T14:38:52;98093.72;;;1.21;79.29
77118;BME280;66072;50.238;19.228;2023-03-04T14:41:32;98093.86;;;1.24;78.93
77118;BME280;66072;50.238;19.228;2023-03-04T14:44:11;98096.66;;;1.27;78.85
77118;BME280;66072;50.238;19.228;2023-03-04T14:46:47;98095.63;;;1.30;78.85
77118;BME280;66072;50.238;19.228;2023-03-04T14:49:35;98092.52;;;1.33;78.65
77118;BME280;66072;50.238;19.228;2023-03-04T14:52:04;98089.59;;;1.38;78.65
77118;BME280;66072;50.238;19.228;2023-03-04T14:54:35;98092.72;;;1.42;78.24
77118;BME280;66072;50.238;19.228;2023-03-04T14:59:47;98091.73;;;1.51;77.52
77118;BME280;66072;50.238;19.228;2023-03-04T15:02:27;98088.31;;;1.54;77.40
77118;BME280;66072;50.238;19.228;2023-03-04T15:04:57;98084.21;;;1.57;77.30
77118;BME280;66072;50.238;19.228;2023-03-04T15:07:35;98085.02;;;1.58;76.85
77118;BME280;66072;50.238;19.228;2023-03-04T15:10:07;98083.48;;;1.61;76.77